Airfield :
LOGIN :

Register | Disclaimer

   EN    FR    IT 

 










Legend :    VFR   Marginal VFR   IFR   Intensive IFR   Very Intensive IFR
Visi :
Ceiling :
>= 8 km
>= 3000ft
5 to 8 km
1000 to 3000 ft
1500m to 5 km
500 to 1000 ft
800 to 1500m
200 to 500 ft
< 800m
< 200 ft
Symbols :   Thunderstorms  Fog  Heavy snow  Heavy precipitations  Wind > 20 kt
SIGMETs :     Misc.  Thunderstorms  Icing  Turbulence  Mountain Waves  Volcanic Ashes






- Airport Elevation : 228 ft
- IATA code : OPO


LPPR - Porto Fr. Sa Carneiro

CURRENT METAR :
  • 291100Z 32012KT 9999 FEW015 SCT030 17/15 Q1011

EXPIRED METARs :
  • 291030Z 33011KT 280V360 9999 FEW010 SCT016 18/15 Q1011
  • 291000Z 32011KT 290V350 9999 SCT009 BKN016 18/17 Q1011
  • 290930Z 32012KT 6000 -SHRA SCT010 BKN018 17/16 Q1011
  • 290900Z 33011KT 9999 SCT012 SCT025 17/16 Q1011
  • 290830Z 32012KT 290V350 9999 FEW005 SCT016 16/16 Q1011

TAF TAF LPPR
Valid from the 29 at 06:00 until the 30 at 06:00 UTC


290500Z 2906/3006 22008KT 8000 SCT006 BKN012
TEMPO 2906/2912 5000 RA BR SCT002 BKN004
PROB30
TEMPO 2906/2909 1200 DZRA BR BKN002
BECMG 2908/2911 32013KT
PROB30
TEMPO 2911/2918 32018G30KT
BECMG 2912/2915 9999 SCT020
BECMG 2918/2921 01005KT CAVOK
BECMG 3000/3002 VRB02KT



MET'MAP, your aeronautical weather chart ! - Copyright ORBIFLY December 2007 - Disclaimer

ORBIFLY MET'MAP TEAM :

Programming & Development : Alexandra Zaïnal
Original concept : Baudouin d'Aumeries
Technical & hardware support : Manuel Goepfert
Assistance : Marc-Olivier Méhu




SOURCES & CREDITS :

   NOAA